Sussex County Airport

Airport
ICAO code: 
KGED
Summary
ICAO Region: 
NAM
Territory: 
Location: 
Georgetown, Delaware,
Elevation: 
53 ft
Coordinates: 
Aerial View: 
38° 41' 22.523" N, 75° 21' 37.621" W
Metar
Observation
KGED 020954Z AUTO 19005KT 10SM OVC100 09/06 A2993 RMK AO2 SLP133 T00940061 $
Station
Georgetown, Sussex County Airport
Date/Time
2021-12-02 09:54:00
Wind direction
190°
Wind speed
05 kts
Lowest cloud amount
overcast
Temperature
9.4°C
Dew point
6.1°C
Humidity
79%
Weather condition
n/a

Description

Sussex County Airport is a public airport located 3 km southeast of the central business district of Georgetown, in Sussex County, Delaware.

Climatology

Humid “subtropical” climate (Köppen climate classification Cfa) - characterized by hot, humid summers and cool winters. Significant amounts of precipitation occur in all seasons in most areas. Winter rainfall (and sometimes snowfall) is associated with large storms that the westerlies steer from west to east. Most summer rainfall occurs during thunderstorms and occasional tropical storms (hurricanes).

Runways

Designator Length Width Surface Rops
10/28 948 23 ASPH Yes/Yes
4/22 1524 46 ASP Yes/Yes
Airport map: 
Aerial View: 

SKYbrary Partners:

Safety knowledge contributed by: